Time;durP1;ratioP1;P1;durP2;ratioP2;P2;SDS_P1;SDS_P2;PMS_P1;PMS_P2;Temp;Humidity;BMP_temperature;BMP_pressure;BME280_temperature;BME280_humidity;BME280_pressure;Samples;Min_cycle;Max_cycle;Signal;HPM_P1;HPM_P2
2021/11/08 00:00:29;;;;;;;46.87;32.67;;;;;;;7.79;90.44;100466.34;1419909;91;22663;-94
2021/11/08 00:03:01;;;;;;;45.60;32.57;;;;;;;7.79;90.44;100467.67;1413033;92;21457;-93
2021/11/08 00:05:29;;;;;;;43.70;31.23;;;;;;;7.81;90.60;100461.30;1423917;92;21383;-94
2021/11/08 00:08:01;;;;;;;52.87;30.73;;;;;;;7.83;90.54;100461.19;1408406;92;21355;-94
2021/11/08 00:10:31;;;;;;;43.40;29.87;;;;;;;7.84;90.47;100466.31;1413443;92;21486;-95
2021/11/08 00:13:00;;;;;;;49.70;33.97;;;;;;;7.83;90.44;100469.09;1412559;92;21441;-94
2021/11/08 00:18:08;;;;;;;42.30;31.60;;;;;;;7.73;90.48;100473.45;1384181;92;21367;-94
2021/11/08 00:20:41;;;;;;;46.47;34.47;;;;;;;7.71;90.63;100478.00;1417626;91;21375;-93
2021/11/08 00:23:08;;;;;;;47.30;34.27;;;;;;;7.67;90.67;100472.99;1392836;92;22293;-95
2021/11/08 00:25:30;;;;;;;42.90;31.73;;;;;;;7.63;90.81;100468.13;1403385;92;21383;-93
2021/11/08 00:27:57;;;;;;;49.07;33.63;;;;;;;7.64;90.99;100477.20;1406028;92;21376;-94
2021/11/08 00:30:24;;;;;;;41.67;31.10;;;;;;;7.64;91.05;100496.12;1395065;93;22316;-95
2021/11/08 00:32:52;;;;;;;52.43;33.53;;;;;;;7.60;91.34;100500.82;1406053;93;21554;-94
2021/11/08 00:35:19;;;;;;;45.37;32.97;;;;;;;7.55;91.46;100508.26;1397924;93;23460;-94
2021/11/08 00:37:46;;;;;;;45.63;33.17;;;;;;;7.52;91.64;100506.36;1402440;93;21384;-94
2021/11/08 00:40:14;;;;;;;54.23;35.90;;;;;;;7.47;91.97;100502.78;1399076;93;21407;-95
2021/11/08 00:42:41;;;;;;;46.57;31.47;;;;;;;7.43;92.16;100504.01;1393927;93;21362;-93
2021/11/08 00:45:09;;;;;;;47.27;34.33;;;;;;;7.42;92.50;100491.78;1386426;93;21406;-94
2021/11/08 00:47:37;;;;;;;45.07;31.87;;;;;;;7.43;92.52;100481.63;1392354;94;21395;-93
2021/11/08 00:50:07;;;;;;;44.57;32.43;;;;;;;7.44;92.52;100483.28;1385142;94;21439;-95
2021/11/08 00:52:35;;;;;;;42.77;33.10;;;;;;;7.42;92.61;100488.69;1396731;93;22386;-93
2021/11/08 00:55:03;;;;;;;50.80;32.87;;;;;;;7.41;92.73;100490.12;1392222;94;22466;-93
2021/11/08 00:57:36;;;;;;;43.83;32.43;;;;;;;7.39;92.86;100494.66;1389288;94;21404;-92
2021/11/08 01:00:00;;;;;;;50.27;33.20;;;;;;;7.38;93.27;100488.57;1394768;93;21705;-91
2021/11/08 01:02:29;;;;;;;42.80;32.17;;;;;;;7.41;93.07;100477.78;1396763;94;21514;-93
2021/11/08 01:05:00;;;;;;;44.17;32.10;;;;;;;7.45;92.77;100478.36;1396883;94;22518;-92
2021/11/08 01:07:29;;;;;;;43.65;31.45;;;;;;;7.50;92.72;100470.92;1387773;94;21624;-93
2021/11/08 01:09:58;;;;;;;53.60;34.20;;;;;;;7.53;92.49;100471.98;1391511;94;21453;-93
2021/11/08 01:12:25;;;;;;;43.23;32.03;;;;;;;7.55;92.42;100466.12;1388201;94;22423;-93
2021/11/08 01:14:54;;;;;;;42.27;30.77;;;;;;;7.60;92.43;100466.58;1393726;94;21394;-94
2021/11/08 01:17:23;;;;;;;43.10;32.27;;;;;;;7.63;92.19;100466.32;1393226;94;21417;-94
2021/11/08 01:19:51;;;;;;;47.40;32.17;;;;;;;7.65;92.10;100453.87;1395483;94;21479;-91
2021/11/08 01:22:20;;;;;;;48.33;30.47;;;;;;;7.69;91.97;100437.31;1390117;94;22357;-95
2021/11/08 01:24:54;;;;;;;47.90;33.43;;;;;;;7.67;92.29;100450.60;1375211;94;21343;-95
2021/11/08 01:27:35;;;;;;;48.77;34.17;;;;;;;7.66;91.92;100455.53;1386162;94;21306;-96
2021/11/08 01:30:08;;;;;;;45.78;33.60;;;;;;;7.71;91.92;100451.66;1400659;92;21449;-93
2021/11/08 01:32:36;;;;;;;50.80;33.73;;;;;;;7.77;91.87;100455.95;1404734;91;21451;-93
2021/11/08 01:35:04;;;;;;;48.57;33.23;;;;;;;7.80;91.67;100460.14;1403020;93;21339;-93
2021/11/08 01:37:31;;;;;;;42.63;30.97;;;;;;;7.77;91.51;100457.73;1412582;91;21428;-93
2021/11/08 01:39:58;;;;;;;52.87;36.33;;;;;;;7.74;91.36;100452.72;1403618;93;21406;-93
2021/11/08 01:42:26;;;;;;;47.40;31.03;;;;;;;7.67;91.54;100464.27;1404383;93;21464;-93
2021/11/08 01:44:53;;;;;;;41.40;30.43;;;;;;;7.63;91.56;100471.59;1407258;93;21427;-92
2021/11/08 01:47:21;;;;;;;46.77;32.43;;;;;;;7.63;91.56;100464.17;1404791;93;21473;-93
2021/11/08 01:49:49;;;;;;;44.83;32.07;;;;;;;7.59;91.77;100451.72;1417386;93;21472;-93
2021/11/08 01:52:16;;;;;;;45.30;31.40;;;;;;;7.56;91.84;100448.02;1401482;93;21421;-94
2021/11/08 01:54:43;;;;;;;44.03;33.07;;;;;;;7.55;91.91;100451.63;1415450;93;22602;-95
2021/11/08 01:57:13;;;;;;;44.33;31.67;;;;;;;7.54;91.98;100442.07;1409194;93;22390;-93
2021/11/08 01:59:41;;;;;;;41.63;30.90;;;;;;;7.56;92.01;100436.17;1402175;93;21480;-92
2021/11/08 02:02:08;;;;;;;45.80;32.73;;;;;;;7.58;91.99;100421.58;1406301;93;21538;-93
2021/11/08 02:04:35;;;;;;;43.03;32.40;;;;;;;7.62;91.96;100428.24;1409060;93;21502;-92
2021/11/08 02:07:02;;;;;;;41.40;30.60;;;;;;;7.59;91.89;100435.91;1407142;93;21524;-94
2021/11/08 02:09:30;;;;;;;48.67;33.47;;;;;;;7.59;91.80;100431.97;1413096;93;21494;-92
2021/11/08 02:11:58;;;;;;;48.87;34.70;;;;;;;7.57;91.89;100426.50;1407101;93;21399;-93
2021/11/08 02:14:25;;;;;;;43.60;32.83;;;;;;;7.59;91.87;100438.55;1409488;93;21399;-93
2021/11/08 02:16:53;;;;;;;40.67;30.10;;;;;;;7.61;91.93;100444.53;1407162;93;21465;-94
2021/11/08 02:19:20;;;;;;;47.13;29.80;;;;;;;7.60;91.89;100448.14;1399488;93;22292;-93
2021/11/08 02:21:47;;;;;;;38.30;30.07;;;;;;;7.58;91.78;100450.06;1413946;93;21406;-95
2021/11/08 02:24:17;;;;;;;48.73;32.47;;;;;;;7.56;91.91;100451.98;1419893;93;21524;-94
2021/11/08 02:26:44;;;;;;;42.97;30.00;;;;;;;7.51;92.25;100448.91;1399732;93;22382;-94
2021/11/08 02:29:13;;;;;;;48.47;30.07;;;;;;;7.50;92.25;100447.22;1406297;93;21332;-94
2021/11/08 02:31:40;;;;;;;41.20;29.27;;;;;;;7.48;92.31;100445.67;1394843;92;21592;-93
2021/11/08 02:34:08;;;;;;;42.47;30.93;;;;;;;7.50;92.39;100443.27;1379944;94;21371;-92
2021/11/08 02:36:41;;;;;;;44.13;30.67;;;;;;;7.53;92.41;100439.06;1401969;93;21534;-94
2021/11/08 02:39:05;;;;;;;41.50;30.40;;;;;;;7.54;92.34;100430.22;1389666;94;21430;-93
2021/11/08 02:41:33;;;;;;;41.13;31.67;;;;;;;7.57;92.30;100427.81;1374390;95;21418;-93
2021/11/08 02:44:02;;;;;;;45.03;31.10;;;;;;;7.60;92.28;100434.97;1363700;95;21450;-93
2021/11/08 02:46:30;;;;;;;39.27;28.37;;;;;;;7.62;92.24;100433.05;1388531;93;21520;-94
2021/11/08 02:48:59;;;;;;;40.17;30.10;;;;;;;7.65;92.20;100436.75;1372984;94;21358;-94
2021/11/08 02:51:29;;;;;;;38.70;28.13;;;;;;;7.64;91.93;100439.01;1391028;94;21552;-95
2021/11/08 02:54:03;;;;;;;38.67;27.63;;;;;;;7.64;91.92;100430.27;1392243;94;22495;-93
2021/11/08 02:56:29;;;;;;;39.83;29.77;;;;;;;7.63;91.87;100421.55;1376783;94;21453;-95
2021/11/08 02:58:57;;;;;;;39.43;28.67;;;;;;;7.62;91.86;100423.84;1387927;94;21481;-93
2021/11/08 03:01:25;;;;;;;44.07;29.63;;;;;;;7.61;91.96;100416.05;1386632;94;22701;-92
2021/11/08 03:03:58;;;;;;;41.50;29.23;;;;;;;7.62;91.83;100409.34;1381549;94;21497;-93
2021/11/08 03:06:27;;;;;;;40.50;27.73;;;;;;;7.63;91.90;100403.10;1380441;94;22192;-94
2021/11/08 03:08:54;;;;;;;40.03;28.03;;;;;;;7.62;91.86;100411.98;1389887;94;21498;-92
2021/11/08 03:11:23;;;;;;;41.60;28.73;;;;;;;7.60;91.75;100406.00;1386029;94;21445;-93
2021/11/08 03:14:00;;;;;;;43.37;29.67;;;;;;;7.59;91.74;100395.09;1383226;94;21437;-93
2021/11/08 03:16:28;;;;;;;41.28;29.70;;;;;;;7.57;91.77;100390.94;1384792;94;21497;-93
2021/11/08 03:18:56;;;;;;;45.80;28.33;;;;;;;7.53;91.87;100396.92;1383142;94;21489;-95
2021/11/08 03:21:19;;;;;;;40.50;27.57;;;;;;;7.50;91.88;100409.03;1381322;94;21490;-94
2021/11/08 03:23:50;;;;;;;41.97;29.17;;;;;;;7.48;92.22;100414.07;1382789;92;21379;-94
2021/11/08 03:29:03;;;;;;;38.27;26.60;;;;;;;7.52;92.11;100437.41;1420822;92;22319;-93
2021/11/08 03:31:33;;;;;;;39.00;28.10;;;;;;;7.50;92.99;100443.27;1424135;91;22441;-92
2021/11/08 03:34:00;;;;;;;35.90;26.80;;;;;;;7.48;92.46;100454.44;1425424;91;22337;-92
2021/11/08 03:36:27;;;;;;;42.90;29.10;;;;;;;7.45;92.64;100462.56;1426891;91;21685;-92
2021/11/08 03:38:55;;;;;;;41.07;28.30;;;;;;;7.45;92.35;100473.95;1417913;93;21474;-92
2021/11/08 03:41:22;;;;;;;40.67;29.63;;;;;;;7.46;92.30;100487.47;1412624;91;21317;-92
2021/11/08 03:43:49;;;;;;;37.43;26.27;;;;;;;7.49;92.18;100496.09;1437774;91;21471;-93
2021/11/08 03:46:17;;;;;;;37.90;25.83;;;;;;;7.50;92.06;100495.94;1431750;91;21338;-91
2021/11/08 03:48:44;;;;;;;39.00;28.20;;;;;;;7.50;91.96;100497.26;1444697;91;21988;-93
2021/11/08 03:51:12;;;;;;;34.40;26.17;;;;;;;7.50;91.74;100482.77;1429903;91;21368;-92
2021/11/08 03:53:39;;;;;;;36.53;26.33;;;;;;;7.51;91.72;100468.66;1430924;91;22291;-92
2021/11/08 03:56:07;;;;;;;35.50;26.07;;;;;;;7.54;91.57;100473.67;1436165;91;22259;-92
2021/11/08 03:58:36;;;;;;;43.83;29.50;;;;;;;7.54;91.32;100474.99;1409601;92;21387;-94
2021/11/08 04:01:06;;;;;;;40.40;27.43;;;;;;;7.50;90.85;100480.63;1428968;91;21346;-94
2021/11/08 04:03:34;;;;;;;37.83;27.03;;;;;;;7.44;90.64;100481.97;1425535;91;21413;-94
2021/11/08 04:06:02;;;;;;;38.03;25.73;;;;;;;7.43;90.71;100488.20;1436303;91;21384;-94
2021/11/08 04:08:29;;;;;;;37.80;28.33;;;;;;;7.40;90.48;100485.83;1435417;91;22197;-93
2021/11/08 04:10:57;;;;;;;36.30;26.43;;;;;;;7.35;90.19;100490.63;1429330;91;21376;-93
2021/11/08 04:13:35;;;;;;;37.00;25.63;;;;;;;7.31;90.19;100495.77;1416927;93;21342;-94
2021/11/08 04:16:02;;;;;;;37.23;26.10;;;;;;;7.28;90.06;100507.41;1434436;91;21551;-94
2021/11/08 04:18:32;;;;;;;34.93;26.00;;;;;;;7.26;90.17;100516.39;1418786;91;22315;-92
2021/11/08 04:21:01;;;;;;;38.33;25.80;;;;;;;7.22;90.22;100514.46;1440884;91;21502;-93
2021/11/08 04:23:29;;;;;;;36.93;26.97;;;;;;;7.09;90.18;100498.00;1432353;91;21362;-94
2021/11/08 04:25:58;;;;;;;36.70;24.93;;;;;;;7.05;90.05;100486.89;1430486;90;21530;-92
2021/11/08 04:28:25;;;;;;;34.60;25.90;;;;;;;7.04;89.96;100490.95;1431369;90;22350;-93
2021/11/08 04:30:54;;;;;;;43.20;29.73;;;;;;;7.01;89.98;100509.14;1425293;91;21384;-92
2021/11/08 04:33:35;;;;;;;36.60;26.33;;;;;;;7.04;90.34;100497.05;1438253;91;22410;-92
2021/11/08 04:41:26;;;;;;;42.63;31.13;;;;;;;7.03;91.05;100498.50;1374594;94;21620;-95
2021/11/08 04:51:51;;;;;;;54.83;39.83;;;;;;;6.94;92.01;100539.06;1386045;93;21891;-91
2021/11/08 04:54:24;;;;;;;54.50;37.83;;;;;;;7.01;92.10;100531.50;1384121;94;21658;-91
2021/11/08 05:24:15;;;;;;;36.83;26.30;;;;;;;7.31;91.53;100539.20;1403557;92;21421;-95
2021/11/08 05:31:43;;;;;;;36.50;25.90;;;;;;;7.30;91.28;100553.34;1435662;90;21406;-93
2021/11/08 05:34:10;;;;;;;36.63;26.37;;;;;;;7.38;91.49;100565.41;1437501;91;21642;-94
2021/11/08 05:36:38;;;;;;;45.23;30.27;;;;;;;7.43;91.40;100556.67;1440564;91;22190;-94
2021/11/08 05:39:07;;;;;;;48.17;33.23;;;;;;;7.42;91.21;100574.73;1425858;91;21464;-92
2021/11/08 05:41:35;;;;;;;43.20;31.67;;;;;;;7.40;91.04;100573.55;1433119;91;21412;-93
2021/11/08 05:44:04;;;;;;;39.93;29.93;;;;;;;7.42;91.00;100553.66;1430459;91;21391;-94
2021/11/08 05:46:32;;;;;;;51.30;34.03;;;;;;;7.43;91.00;100540.88;1445804;91;21539;-93
2021/11/08 05:48:59;;;;;;;50.57;34.97;;;;;;;7.39;91.14;100542.06;1419949;91;21339;-91
2021/11/08 05:51:27;;;;;;;45.03;29.60;;;;;;;7.39;91.06;100522.31;1392660;92;23254;-90
2021/11/08 05:53:55;;;;;;;44.37;31.37;;;;;;;7.36;91.28;100501.50;1437533;90;23379;-91
2021/11/08 05:56:44;;;;;;;45.20;27.93;;;;;;;7.35;91.25;100509.88;1438242;91;21434;-91
2021/11/08 05:59:14;;;;;;;43.57;31.97;;;;;;;7.28;92.36;100534.19;1429528;91;21478;-92
2021/11/08 06:48:56;;;;;;;41.63;29.37;;;;;;;7.46;91.81;100619.63;1428109;91;21480;-92
2021/11/08 06:51:05;;;;;;;46.47;33.57;;;;;;;7.49;91.89;100629.91;1422801;91;21493;-94
2021/11/08 06:53:33;;;;;;;39.17;30.27;;;;;;;7.53;91.60;100632.64;1419430;91;21398;-93
2021/11/08 06:56:01;;;;;;;36.80;28.70;;;;;;;7.53;91.60;100627.37;1427919;91;21450;-92
2021/11/08 06:58:29;;;;;;;36.43;27.60;;;;;;;7.58;91.64;100642.34;1428042;91;21451;-94
2021/11/08 07:00:57;;;;;;;39.93;31.63;;;;;;;7.65;91.81;100651.44;1418872;91;21450;-94
2021/11/08 07:03:24;;;;;;;40.80;29.07;;;;;;;7.74;91.83;100654.27;1423862;91;21421;-94
2021/11/08 07:05:51;;;;;;;45.13;30.80;;;;;;;7.64;91.73;100672.13;1436528;91;21302;-94
2021/11/08 07:08:18;;;;;;;39.77;28.83;;;;;;;7.59;91.68;100682.20;1417554;91;21392;-95
2021/11/08 07:10:46;;;;;;;36.53;28.53;;;;;;;7.61;91.40;100690.82;1436606;91;21442;-93
2021/11/08 07:13:13;;;;;;;42.30;29.47;;;;;;;7.64;91.48;100683.99;1429529;91;21413;-94
2021/11/08 07:15:42;;;;;;;38.60;28.93;;;;;;;7.71;91.64;100684.81;1429354;91;22337;-95
2021/11/08 07:18:12;;;;;;;43.87;32.47;;;;;;;7.72;91.47;100675.97;1423280;91;21443;-94
2021/11/08 07:20:39;;;;;;;44.50;31.60;;;;;;;7.53;91.69;100662.94;1432394;91;21406;-94
2021/11/08 07:23:06;;;;;;;42.03;29.87;;;;;;;7.53;91.69;100662.94;1425884;91;21376;-94
2021/11/08 07:25:33;;;;;;;43.63;29.63;;;;;;;7.52;91.93;100665.70;1437687;90;21331;-95
2021/11/08 07:28:04;;;;;;;42.90;31.63;;;;;;;7.50;92.41;100660.55;1425937;90;21368;-95
2021/11/08 07:30:31;;;;;;;44.73;31.50;;;;;;;7.44;92.84;100667.13;1425870;91;21531;-95
2021/11/08 07:32:58;;;;;;;44.70;31.97;;;;;;;7.42;93.25;100664.27;1424849;91;21331;-95
2021/11/08 07:35:25;;;;;;;46.70;32.50;;;;;;;7.49;92.76;100659.37;1423491;91;21480;-94
2021/11/08 07:37:57;;;;;;;40.20;28.70;;;;;;;7.52;92.98;100654.69;1420500;91;21473;-94
2021/11/08 07:40:24;;;;;;;45.47;31.60;;;;;;;7.53;93.34;100657.66;1427638;91;21384;-93
2021/11/08 07:42:51;;;;;;;45.50;30.03;;;;;;;7.49;93.24;100658.88;1428440;91;21427;-94
2021/11/08 07:45:18;;;;;;;49.33;35.30;;;;;;;7.49;93.31;100672.53;1421357;92;21930;-95
2021/11/08 07:47:45;;;;;;;58.53;34.10;;;;;;;7.51;93.04;100682.45;1426453;92;21428;-95
2021/11/08 07:50:14;;;;;;;44.60;33.30;;;;;;;7.55;93.00;100694.44;1420085;91;21398;-95
2021/11/08 07:52:41;;;;;;;54.23;37.97;;;;;;;7.63;93.02;100694.18;1412630;92;21415;-95
2021/11/08 07:55:08;;;;;;;66.50;46.20;;;;;;;7.73;92.95;100690.80;1429451;91;21346;-95
2021/11/08 07:57:35;;;;;;;65.70;45.10;;;;;;;7.85;92.89;100687.17;1409494;92;21516;-94
2021/11/08 08:00:05;;;;;;;73.20;49.80;;;;;;;7.95;92.89;100692.08;1412144;91;21355;-95
2021/11/08 08:02:32;;;;;;;61.50;40.13;;;;;;;8.04;92.51;100693.96;1419792;92;21406;-94
2021/11/08 08:04:59;;;;;;;91.20;50.53;;;;;;;8.09;91.83;100700.19;1403983;92;21583;-94
2021/11/08 08:07:26;;;;;;;310.27;118.53;;;;;;;8.10;91.44;100706.64;1411466;92;22337;-94
2021/11/08 08:09:54;;;;;;;61.30;40.27;;;;;;;8.14;91.46;100705.44;1416339;92;22336;-96
2021/11/08 08:12:22;;;;;;;117.50;57.27;;;;;;;8.08;91.08;100695.38;1429373;91;22034;-95
2021/11/08 08:14:49;;;;;;;66.27;42.40;;;;;;;8.05;91.06;100688.20;1431560;92;21361;-94
2021/11/08 08:17:17;;;;;;;44.00;30.87;;;;;;;8.08;91.13;100682.19;1426625;91;21398;-94
2021/11/08 08:19:48;;;;;;;45.27;31.27;;;;;;;8.01;91.02;100682.35;1427872;92;21436;-93
2021/11/08 08:22:15;;;;;;;62.23;40.17;;;;;;;8.01;91.26;100691.58;1419170;92;21391;-94
2021/11/08 08:24:42;;;;;;;51.23;34.83;;;;;;;8.00;91.33;100693.00;1424916;91;21406;-95
2021/11/08 08:27:09;;;;;;;50.00;36.37;;;;;;;8.06;91.62;100696.00;1424029;92;21332;-95
2021/11/08 08:29:37;;;;;;;52.00;36.40;;;;;;;8.06;91.47;100699.95;1422493;91;22476;-95
2021/11/08 08:32:05;;;;;;;63.90;38.70;;;;;;;8.01;91.48;100696.84;1429423;92;23437;-95
2021/11/08 08:34:32;;;;;;;69.13;47.30;;;;;;;8.02;91.28;100693.23;1428349;91;21267;-95
2021/11/08 08:36:59;;;;;;;67.37;45.67;;;;;;;8.00;91.82;100694.32;1415468;90;21464;-96
2021/11/08 08:39:26;;;;;;;54.80;38.73;;;;;;;8.02;91.58;100705.10;1441390;90;21419;-96
2021/11/08 08:41:54;;;;;;;54.83;37.50;;;;;;;8.07;91.75;100713.48;1438377;90;22306;-95
2021/11/08 08:44:21;;;;;;;53.63;35.33;;;;;;;8.11;91.56;100722.83;1450745;90;22226;-96
2021/11/08 08:46:49;;;;;;;58.60;41.30;;;;;;;8.19;91.43;100722.19;1430135;90;21464;-96
2021/11/08 08:49:18;;;;;;;57.53;38.77;;;;;;;8.17;90.79;100716.68;1450846;90;22232;-96
2021/11/08 08:51:46;;;;;;;55.07;37.53;;;;;;;8.12;90.59;100724.98;1450503;90;21434;-96
2021/11/08 08:54:13;;;;;;;54.77;37.57;;;;;;;8.18;90.68;100731.56;1444337;90;21398;-96
2021/11/08 08:56:41;;;;;;;52.37;37.10;;;;;;;8.23;90.85;100729.36;1427289;90;21457;-95
2021/11/08 08:59:08;;;;;;;60.97;40.57;;;;;;;8.31;90.92;100735.68;1440102;90;21464;-96
2021/11/08 09:01:36;;;;;;;50.60;35.63;;;;;;;8.37;90.58;100735.66;1440391;90;21507;-96
2021/11/08 09:04:04;;;;;;;60.67;38.70;;;;;;;8.39;90.23;100737.73;1432556;90;21369;-95
2021/11/08 09:06:32;;;;;;;78.33;40.20;;;;;;;8.48;90.25;100728.22;1438967;90;21435;-96
2021/11/08 09:08:59;;;;;;;83.37;48.17;;;;;;;8.49;89.33;100707.02;1438076;90;21472;-95
2021/11/08 09:11:26;;;;;;;66.83;43.27;;;;;;;8.53;89.52;100697.86;1454479;90;21368;-96
2021/11/08 09:13:54;;;;;;;92.07;52.33;;;;;;;8.59;89.51;100692.07;1450345;90;21388;-95
2021/11/08 09:16:21;;;;;;;118.43;61.93;;;;;;;8.67;89.67;100684.84;1452189;90;22284;-95
2021/11/08 09:18:51;;;;;;;75.43;42.63;;;;;;;8.76;89.53;100695.11;1440939;90;21294;-94
2021/11/08 09:21:22;;;;;;;103.50;56.68;;;;;;;8.76;87.44;100713.58;1439031;90;21405;-94
2021/11/08 09:23:50;;;;;;;201.07;101.85;;;;;;;8.82;88.14;100710.42;1436139;90;21242;-96
2021/11/08 09:26:20;;;;;;;74.27;45.80;;;;;;;8.91;88.29;100717.55;1432325;90;21396;-96
2021/11/08 09:28:47;;;;;;;50.90;33.87;;;;;;;8.98;88.21;100724.00;1454508;90;21375;-95
2021/11/08 09:31:16;;;;;;;70.90;40.43;;;;;;;9.04;87.66;100734.05;1449023;90;21412;-96
2021/11/08 09:33:43;;;;;;;48.23;32.53;;;;;;;9.10;87.34;100739.28;1443858;90;21368;-96
2021/11/08 09:36:13;;;;;;;56.40;33.80;;;;;;;9.08;85.22;100745.66;1439682;90;21428;-94
2021/11/08 09:38:54;;;;;;;85.03;36.07;;;;;;;8.99;85.33;100740.19;1433268;90;21492;-95
2021/11/08 09:41:23;;;;;;;67.10;34.17;;;;;;;8.98;85.18;100741.16;1450887;90;21486;-95
2021/11/08 09:43:52;;;;;;;;;;;;;;;8.94;85.08;100745.02;1449856;90;23181;-94
2021/11/08 09:46:19;;;;;;;51.37;32.47;;;;;;;8.84;84.66;100748.09;1440044;90;20352;-91
2021/11/08 09:48:47;;;;;;;53.60;32.53;;;;;;;8.87;85.42;100737.27;1445090;89;21849;-92
2021/11/08 09:51:15;;;;;;;47.33;31.53;;;;;;;8.86;84.66;100750.58;1443933;89;22082;-94
2021/11/08 09:53:44;;;;;;;47.30;33.90;;;;;;;8.89;85.09;100772.76;1419561;90;21368;-93
2021/11/08 09:56:14;;;;;;;45.77;29.20;;;;;;;8.97;85.80;100750.52;1440002;90;22365;-91
2021/11/08 09:58:42;;;;;;;51.40;35.15;;;;;;;9.04;84.22;100755.16;1433800;90;21419;-94
2021/11/08 10:01:14;;;;;;;46.33;33.23;;;;;;;9.06;84.45;100769.54;1448854;90;21375;-93
2021/11/08 10:03:45;;;;;;;68.27;39.40;;;;;;;9.14;84.60;100775.50;1439989;89;21523;-93
2021/11/08 10:06:12;;;;;;;74.07;40.85;;;;;;;9.23;84.91;100774.72;1412456;92;21434;-92
2021/11/08 10:08:40;;;;;;;116.70;65.10;;;;;;;9.37;84.87;100763.81;1441438;90;21456;-90
2021/11/08 10:11:13;;;;;;;58.03;38.50;;;;;;;9.46;84.24;100748.97;1442778;90;21421;-92
2021/11/08 10:13:42;;;;;;;49.50;34.60;;;;;;;9.55;83.50;100744.70;1448658;90;21353;-91
2021/11/08 10:16:23;;;;;;;45.40;33.30;;;;;;;9.74;83.40;100744.77;1445013;90;21455;-91
2021/11/08 10:18:53;;;;;;;;;;;;;;;9.84;82.63;100740.36;1449478;90;22430;-83
2021/11/08 10:21:28;;;;;;;49.10;33.10;;;;;;;9.88;82.14;100734.31;1441143;90;20250;-84
2021/11/08 10:24:00;;;;;;;46.03;33.43;;;;;;;9.96;82.25;100737.12;1441941;90;22491;-85
2021/11/08 10:26:33;;;;;;;47.03;32.30;;;;;;;10.04;81.30;100754.93;1435889;90;22261;-85
2021/11/08 10:29:12;;;;;;;63.47;40.67;;;;;;;10.01;80.53;100764.45;1450822;90;21478;-87
2021/11/08 10:31:47;;;;;;;48.60;31.83;;;;;;;9.92;79.80;100760.82;1450137;90;21434;-87
2021/11/08 10:34:16;;;;;;;55.30;36.37;;;;;;;9.81;79.90;100764.42;1451327;90;21477;-86
2021/11/08 10:36:45;;;;;;;75.93;45.90;;;;;;;9.82;80.58;100771.38;1439014;90;22499;-87
2021/11/08 10:39:13;;;;;;;60.80;36.87;;;;;;;9.84;80.45;100773.41;1432513;90;21524;-86
2021/11/08 10:41:45;;;;;;;43.57;29.60;;;;;;;9.82;79.27;100777.98;1423636;91;21538;-84
2021/11/08 10:44:22;;;;;;;55.27;37.00;;;;;;;9.63;77.86;100780.55;1423470;91;21458;-89
2021/11/08 10:46:57;;;;;;;46.13;32.20;;;;;;;9.57;79.11;100781.91;1422348;91;21338;-88
2021/11/08 10:49:28;;;;;;;47.50;32.17;;;;;;;9.58;79.70;100793.31;1415600;91;21434;-86
2021/11/08 10:52:00;;;;;;;42.30;28.07;;;;;;;9.51;79.53;100783.77;1421759;91;21449;-91
2021/11/08 10:54:36;;;;;;;42.17;30.70;;;;;;;9.52;79.73;100774.03;1430793;91;21405;-91
2021/11/08 10:57:08;;;;;;;47.30;31.90;;;;;;;9.44;78.98;100763.66;1427476;91;21390;-90
2021/11/08 10:59:42;;;;;;;46.63;32.17;;;;;;;9.47;79.51;100759.42;1437684;91;22461;-90
2021/11/08 11:02:13;;;;;;;44.80;31.07;;;;;;;9.51;79.88;100775.02;1430080;90;21589;-93
2021/11/08 11:04:47;;;;;;;43.73;31.40;;;;;;;9.54;80.29;100786.14;1423571;91;22396;-92
2021/11/08 11:07:22;;;;;;;45.17;31.97;;;;;;;9.56;80.29;100783.38;1425825;91;21384;-92
2021/11/08 11:09:51;;;;;;;46.27;30.23;;;;;;;9.58;80.04;100787.58;1433015;91;22314;-90
2021/11/08 11:12:23;;;;;;;38.57;28.17;;;;;;;9.57;79.69;100785.87;1428035;90;21376;-90
2021/11/08 11:15:10;;;;;;;43.97;29.00;;;;;;;9.56;79.72;100780.25;1424951;91;21332;-91
2021/11/08 11:17:46;;;;;;;43.70;30.20;;;;;;;9.52;78.84;100776.19;1429862;91;21553;-94
2021/11/08 11:20:21;;;;;;;37.67;27.73;;;;;;;9.40;78.49;100782.04;1432097;91;21420;-95
2021/11/08 11:23:06;;;;;;;43.13;30.30;;;;;;;9.41;78.84;100779.77;1425412;91;21317;-93
2021/11/08 11:25:38;;;;;;;48.63;30.27;;;;;;;9.37;78.76;100773.05;1425127;91;21442;-88
2021/11/08 11:28:07;;;;;;;44.70;30.37;;;;;;;9.27;78.41;100773.51;1420586;91;21865;-88
2021/11/08 11:30:39;;;;;;;44.13;28.50;;;;;;;9.40;79.34;100773.28;1425988;91;21448;-88
2021/11/08 11:33:10;;;;;;;45.30;30.47;;;;;;;9.49;79.37;100780.41;1398196;92;22402;-89
2021/11/08 11:35:55;;;;;;;40.73;28.13;;;;;;;9.62;79.39;100786.81;1388591;93;21488;-90
2021/11/08 11:38:29;;;;;;;42.20;28.70;;;;;;;9.67;78.81;100786.77;1424290;91;22381;-90
2021/11/08 11:41:10;;;;;;;42.20;29.40;;;;;;;9.71;78.38;100785.52;1434952;90;22364;-91
2021/11/08 11:43:45;;;;;;;44.33;30.23;;;;;;;9.82;78.35;100786.41;1433368;89;22357;-88
2021/11/08 11:46:22;;;;;;;41.77;27.93;;;;;;;9.89;78.46;100788.36;1433401;91;21456;-88
2021/11/08 11:48:50;;;;;;;38.67;28.40;;;;;;;9.99;77.50;100786.25;1416229;91;21627;-89
2021/11/08 11:51:23;;;;;;;38.20;27.07;;;;;;;9.90;77.16;100785.25;1402597;91;21494;-90
2021/11/08 11:53:51;;;;;;;46.83;30.03;;;;;;;9.88;76.36;100784.05;1514936;91;21221;-90
2021/11/08 11:56:21;;;;;;;40.47;27.47;;;;;;;9.87;76.74;100779.75;1439926;91;21518;-90
2021/11/08 11:58:49;;;;;;;43.58;29.65;;;;;;;9.75;76.16;100784.77;1434936;91;21420;-90
2021/11/08 12:01:21;;;;;;;41.70;30.27;;;;;;;9.61;76.44;100781.16;1441603;91;21526;-89
2021/11/08 12:03:51;;;;;;;43.03;30.80;;;;;;;9.60;76.91;100789.58;1430685;91;21471;-90
2021/11/08 12:06:26;;;;;;;39.70;27.70;;;;;;;9.57;77.11;100788.52;1417200;91;21391;-90
2021/11/08 12:09:00;;;;;;;46.07;29.17;;;;;;;9.46;76.70;100787.28;1429762;91;21448;-89
2021/11/08 12:11:41;;;;;;;47.50;32.03;;;;;;;9.35;77.02;100787.36;1434596;90;22587;-90
2021/11/08 12:14:17;;;;;;;40.17;27.73;;;;;;;9.34;77.66;100779.09;1433908;91;21398;-90
2021/11/08 12:17:04;;;;;;;47.97;30.50;;;;;;;9.31;78.21;100780.19;1438434;91;21515;-89
2021/11/08 12:19:36;;;;;;;45.67;27.87;;;;;;;9.41;78.55;100778.45;1414134;91;21515;-89
2021/11/08 12:22:18;;;;;;;107.80;34.03;;;;;;;9.28;77.26;100770.38;1436252;91;22403;-90
2021/11/08 12:25:07;;;;;;;46.73;29.07;;;;;;;9.39;78.14;100773.77;1432880;91;21627;-90
2021/11/08 12:27:54;;;;;;;41.73;28.67;;;;;;;9.43;77.59;100772.53;1436905;91;21520;-89
2021/11/08 12:30:38;;;;;;;41.17;29.00;;;;;;;9.39;76.81;100768.48;1428354;91;21567;-90
2021/11/08 12:33:11;;;;;;;39.00;27.30;;;;;;;9.44;77.55;100775.55;1435003;91;21549;-90
2021/11/08 12:35:41;;;;;;;45.73;29.70;;;;;;;9.46;76.72;100772.75;1435796;91;21589;-90
2021/11/08 12:38:23;;;;;;;37.87;26.70;;;;;;;9.39;76.51;100777.73;1432687;91;21453;-89
2021/11/08 12:41:13;;;;;;;38.70;26.63;;;;;;;9.35;76.66;100767.09;1426371;91;21405;-89
2021/11/08 12:43:45;;;;;;;38.07;26.53;;;;;;;9.33;76.87;100774.30;1431495;91;22418;-90
2021/11/08 12:46:18;;;;;;;42.93;26.43;;;;;;;9.27;76.40;100769.55;1412278;91;21601;-89
2021/11/08 12:48:47;;;;;;;37.07;25.50;;;;;;;9.25;76.16;100763.55;1436096;91;21538;-90
2021/11/08 12:51:18;;;;;;;35.13;23.80;;;;;;;9.33;76.01;100766.37;1427953;91;21369;-90
2021/11/08 12:53:50;;;;;;;41.13;27.40;;;;;;;9.37;74.55;100775.70;1425931;91;21383;-90
2021/11/08 12:56:28;;;;;;;36.43;25.17;;;;;;;9.44;75.40;100790.07;1426356;91;21414;-89
2021/11/08 12:58:58;;;;;;;41.10;27.17;;;;;;;9.53;75.48;100782.33;1429806;91;21569;-89
2021/11/08 13:01:46;;;;;;;36.47;24.73;;;;;;;9.57;74.95;100782.41;1431581;91;21627;-90
2021/11/08 13:04:16;;;;;;;39.00;27.10;;;;;;;9.64;75.29;100785.72;1427142;91;21465;-90
2021/11/08 13:06:46;;;;;;;38.47;28.10;;;;;;;9.76;74.70;100789.09;1410801;91;22300;-90